Time;durP1;ratioP1;P1;durP2;ratioP2;P2;SDS_P1;SDS_P2;PMS_P1;PMS_P2;Temp;Humidity;BMP_temperature;BMP_pressure;BME280_temperature;BME280_humidity;BME280_pressure;Samples;Min_cycle;Max_cycle;Signal;HPM_P1;HPM_P2
2023/12/25 05:31:12;;;;;;;0.10;0.10;;;12.00;84.40;;;;;;5506046;23;20049;-80
2023/12/25 05:33:37;;;;;;;0.00;0.00;;;12.00;84.50;;;;;;4897086;29;20032;-80
2023/12/25 05:36:03;;;;;;;0.10;0.10;;;11.90;84.50;;;;;;4885091;29;20476;-80
2023/12/25 05:38:28;;;;;;;0.10;0.10;;;11.90;84.40;;;;;;4903283;29;20048;-80
2023/12/25 05:40:54;;;;;;;0.10;0.10;;;11.80;84.30;;;;;;4892938;29;20108;-80
2023/12/25 05:43:20;;;;;;;0.10;0.10;;;11.80;84.40;;;;;;4884374;29;20052;-80
2023/12/25 05:45:45;;;;;;;0.10;0.10;;;11.80;84.20;;;;;;4884854;29;20040;-80
2023/12/25 05:48:11;;;;;;;0.10;0.10;;;11.80;84.20;;;;;;4890781;29;20056;-80
2023/12/25 05:50:37;;;;;;;0.10;0.10;;;11.80;84.20;;;;;;4897565;29;20029;-80
2023/12/25 05:53:02;;;;;;;0.10;0.10;;;11.80;84.30;;;;;;4867779;29;20037;-80
2023/12/25 05:55:28;;;;;;;0.10;0.10;;;11.80;84.20;;;;;;4884316;29;20073;-79
2023/12/25 05:57:54;;;;;;;0.10;0.10;;;11.70;84.10;;;;;;4885014;29;20033;-80
2023/12/25 06:00:20;;;;;;;0.10;0.10;;;11.80;84.10;;;;;;4867509;29;20220;-80
2023/12/25 06:02:45;;;;;;;0.10;0.10;;;11.70;84.20;;;;;;4908058;29;20048;-80
2023/12/25 06:05:11;;;;;;;0.10;0.10;;;11.70;84.30;;;;;;4891256;29;20430;-80
2023/12/25 06:07:37;;;;;;;0.10;0.10;;;11.70;84.30;;;;;;4899064;29;20049;-80
2023/12/25 06:10:03;;;;;;;0.10;0.10;;;11.70;84.40;;;;;;4883847;29;20044;-80
2023/12/25 06:12:29;;;;;;;0.10;0.10;;;11.70;84.40;;;;;;4893534;29;20032;-80
2023/12/25 06:14:55;;;;;;;0.10;0.10;;;11.80;84.40;;;;;;4886074;29;20172;-80
2023/12/25 06:17:20;;;;;;;0.10;0.10;;;11.80;84.40;;;;;;4888539;29;20420;-80
2023/12/25 06:19:46;;;;;;;0.10;0.10;;;11.80;84.30;;;;;;4883910;29;20037;-80
2023/12/25 06:22:12;;;;;;;0.10;0.10;;;11.80;84.20;;;;;;4889947;29;20045;-80
2023/12/25 06:24:37;;;;;;;0.10;0.10;;;11.80;84.20;;;;;;4902602;29;20043;-80
2023/12/25 06:27:03;;;;;;;0.10;0.10;;;11.90;84.30;;;;;;4902482;29;20025;-80
2023/12/25 06:29:29;;;;;;;0.10;0.10;;;11.90;84.20;;;;;;4902627;29;20516;-80
2023/12/25 06:31:54;;;;;;;0.10;0.10;;;11.80;84.20;;;;;;4886341;29;20131;-80
2023/12/25 06:34:21;;;;;;;0.10;0.10;;;11.90;84.30;;;;;;4883831;29;20053;-80
2023/12/25 06:36:47;;;;;;;0.10;0.10;;;11.90;84.10;;;;;;4888784;29;20100;-80
2023/12/25 06:39:12;;;;;;;0.10;0.10;;;12.00;84.20;;;;;;4892654;29;20025;-80
2023/12/25 06:41:38;;;;;;;0.10;0.10;;;12.00;84.10;;;;;;4893595;29;20028;-80
2023/12/25 06:44:04;;;;;;;0.10;0.10;;;12.00;84.10;;;;;;4907173;29;20033;-80
2023/12/25 06:46:29;;;;;;;0.10;0.10;;;12.00;84.00;;;;;;4911382;29;20029;-81
2023/12/25 06:48:55;;;;;;;0.10;0.10;;;12.10;83.90;;;;;;4909169;29;20025;-80
2023/12/25 06:51:20;;;;;;;0.10;0.10;;;12.00;83.90;;;;;;4910628;29;20882;-80
2023/12/25 06:53:46;;;;;;;0.10;0.10;;;12.10;83.90;;;;;;4909467;29;20024;-80
2023/12/25 06:56:12;;;;;;;0.10;0.10;;;12.10;83.70;;;;;;4906357;29;20041;-80
2023/12/25 06:58:37;;;;;;;0.10;0.10;;;12.10;83.60;;;;;;4911158;29;20067;-80
2023/12/25 07:01:06;;;;;;;0.10;0.10;;;12.00;83.60;;;;;;4909740;29;20575;-80
2023/12/25 07:03:32;;;;;;;0.10;0.10;;;12.10;83.70;;;;;;4910446;29;20475;-81
2023/12/25 07:05:58;;;;;;;0.10;0.10;;;12.10;83.70;;;;;;4879789;29;20072;-81
2023/12/25 07:08:27;;;;;;;0.10;0.10;;;12.10;83.70;;;;;;4882647;29;20036;-81
2023/12/25 07:10:54;;;;;;;0.10;0.10;;;12.00;83.80;;;;;;4892618;29;20136;-83
2023/12/25 07:13:19;;;;;;;0.10;0.10;;;12.00;83.70;;;;;;4891041;29;20025;-82
2023/12/25 07:15:45;;;;;;;0.10;0.10;;;11.90;83.90;;;;;;4872865;29;20036;-83
2023/12/25 07:18:10;;;;;;;0.10;0.10;;;11.90;84.10;;;;;;4900920;29;20408;-82
2023/12/25 07:20:36;;;;;;;0.10;0.10;;;11.90;84.20;;;;;;4900475;29;20056;-81
2023/12/25 07:23:02;;;;;;;0.10;0.10;;;11.80;84.30;;;;;;4901141;29;20131;-81
2023/12/25 07:25:28;;;;;;;0.10;0.10;;;11.90;84.40;;;;;;4900494;29;20036;-82
2023/12/25 07:27:53;;;;;;;0.10;0.10;;;11.90;84.40;;;;;;4900886;29;20067;-84
2023/12/25 07:30:19;;;;;;;0.10;0.10;;;12.00;84.40;;;;;;4901251;29;20064;-81
2023/12/25 07:32:44;;;;;;;0.10;0.10;;;12.00;84.20;;;;;;4901019;29;20127;-82
2023/12/25 07:35:10;;;;;;;0.10;0.10;;;12.00;84.30;;;;;;4900860;29;20027;-80
2023/12/25 07:37:36;;;;;;;0.10;0.10;;;12.00;84.30;;;;;;4900995;29;20024;-82
2023/12/25 07:40:01;;;;;;;0.10;0.10;;;12.00;84.00;;;;;;4901059;29;20024;-82
2023/12/25 07:42:27;;;;;;;0.10;0.10;;;12.00;83.80;;;;;;4900761;29;20071;-81
2023/12/25 07:44:52;;;;;;;0.10;0.10;;;12.10;83.80;;;;;;4900696;29;20028;-78
2023/12/25 07:47:18;;;;;;;0.10;0.10;;;12.10;83.70;;;;;;4899728;29;20033;-77
2023/12/25 07:49:44;;;;;;;0.10;0.10;;;12.20;83.40;;;;;;4896046;29;20044;-77
2023/12/25 07:52:09;;;;;;;0.10;0.10;;;12.20;83.30;;;;;;4893725;29;20041;-78
2023/12/25 07:54:35;;;;;;;0.05;0.05;;;12.10;83.30;;;;;;4899442;29;20534;-79
2023/12/25 07:57:00;;;;;;;0.10;0.10;;;12.20;83.40;;;;;;4899645;29;20055;-77
2023/12/25 07:59:26;;;;;;;0.10;0.10;;;12.20;83.30;;;;;;4899778;29;20492;-76
2023/12/25 08:01:52;;;;;;;0.10;0.10;;;12.20;83.40;;;;;;4900085;29;20021;-78
2023/12/25 08:04:17;;;;;;;0.10;0.10;;;12.20;83.20;;;;;;4900329;29;20020;-76
2023/12/25 08:06:43;;;;;;;0.10;0.10;;;12.30;83.10;;;;;;4883313;29;20063;-77
2023/12/25 08:09:09;;;;;;;0.08;0.08;;;12.20;83.00;;;;;;4900448;29;20135;-76
2023/12/25 08:11:35;;;;;;;0.10;0.10;;;12.30;83.00;;;;;;4883047;29;20036;-78
2023/12/25 08:14:01;;;;;;;0.10;0.10;;;12.30;83.00;;;;;;4895562;23;20052;-78
2023/12/25 08:16:27;;;;;;;0.00;0.00;;;12.40;82.70;;;;;;4882541;29;20796;-82
2023/12/25 08:18:53;;;;;;;0.10;0.10;;;12.40;82.60;;;;;;4877928;29;20025;-83
2023/12/25 08:21:20;;;;;;;0.10;0.10;;;12.40;82.60;;;;;;4893622;29;20029;-83
2023/12/25 08:23:46;;;;;;;0.00;0.00;;;12.40;82.60;;;;;;4886596;29;20080;-79
2023/12/25 08:26:11;;;;;;;0.10;0.10;;;12.50;82.50;;;;;;4896686;29;20036;-80
2023/12/25 08:28:38;;;;;;;0.10;0.10;;;12.50;82.40;;;;;;4885227;29;20097;-78
2023/12/25 08:31:04;;;;;;;0.10;0.10;;;12.50;82.40;;;;;;4895276;29;20040;-78
2023/12/25 08:33:29;;;;;;;0.10;0.10;;;12.50;82.20;;;;;;4888125;29;20040;-80
2023/12/25 08:35:55;;;;;;;0.10;0.10;;;12.50;82.30;;;;;;4882801;29;20025;-82
2023/12/25 08:38:21;;;;;;;0.10;0.10;;;12.60;82.30;;;;;;4898835;29;20591;-78
2023/12/25 08:40:48;;;;;;;0.10;0.10;;;12.50;82.20;;;;;;4894911;29;20040;-79
2023/12/25 08:43:14;;;;;;;0.10;0.10;;;12.60;82.40;;;;;;4880602;29;20164;-87
2023/12/25 08:45:40;;;;;;;0.00;0.00;;;12.60;82.40;;;;;;4900676;29;20060;-82
2023/12/25 08:48:06;;;;;;;0.10;0.10;;;12.60;82.40;;;;;;4882000;29;20040;-80
2023/12/25 08:50:32;;;;;;;0.10;0.10;;;12.70;82.40;;;;;;4898259;29;20036;-81
2023/12/25 08:52:57;;;;;;;0.08;0.08;;;12.70;82.40;;;;;;4898928;29;20107;-86
2023/12/25 08:55:23;;;;;;;0.10;0.10;;;12.80;82.40;;;;;;4899549;29;20035;-79
2023/12/25 08:57:49;;;;;;;0.10;0.10;;;12.80;82.30;;;;;;4894026;29;20028;-80
2023/12/25 09:00:15;;;;;;;0.10;0.10;;;12.90;82.10;;;;;;4899772;29;20100;-82
2023/12/25 09:02:40;;;;;;;0.10;0.10;;;12.90;82.10;;;;;;4881882;29;20463;-84
2023/12/25 09:05:06;;;;;;;0.10;0.10;;;12.90;82.20;;;;;;4899768;29;20024;-83
2023/12/25 09:07:32;;;;;;;0.10;0.10;;;12.90;82.20;;;;;;4896499;29;20043;-83
2023/12/25 09:09:58;;;;;;;0.10;0.10;;;12.90;82.00;;;;;;4897456;29;20679;-83
2023/12/25 09:12:23;;;;;;;0.08;0.08;;;13.00;81.90;;;;;;4881767;29;20081;-86
2023/12/25 09:14:49;;;;;;;0.10;0.10;;;13.00;82.00;;;;;;4879102;29;20501;-82
2023/12/25 09:17:16;;;;;;;0.10;0.10;;;13.00;82.10;;;;;;4898241;29;20128;-85
2023/12/25 09:19:42;;;;;;;0.10;0.10;;;13.00;82.00;;;;;;4898814;29;20029;-84
2023/12/25 09:22:08;;;;;;;0.10;0.10;;;13.00;81.90;;;;;;4889645;29;20112;-87
2023/12/25 09:24:33;;;;;;;0.10;0.10;;;13.00;82.10;;;;;;4899129;29;20040;-78
2023/12/25 09:27:00;;;;;;;0.03;0.03;;;13.00;82.10;;;;;;4882861;29;20029;-79
2023/12/25 09:29:27;;;;;;;0.10;0.10;;;13.00;82.20;;;;;;4898577;29;20561;-80
2023/12/25 09:31:53;;;;;;;0.10;0.10;;;13.00;82.30;;;;;;4889605;29;20108;-80
2023/12/25 09:34:18;;;;;;;0.10;0.10;;;13.00;82.40;;;;;;4898477;29;20067;-80
2023/12/25 09:36:44;;;;;;;0.00;0.00;;;13.00;82.50;;;;;;4896595;29;20029;-79
2023/12/25 09:39:10;;;;;;;0.00;0.00;;;13.10;82.40;;;;;;4892084;29;20130;-80
2023/12/25 09:41:36;;;;;;;0.10;0.10;;;13.10;82.30;;;;;;4874527;29;20032;-87
2023/12/25 09:44:02;;;;;;;0.10;0.10;;;13.10;82.40;;;;;;4880865;29;20037;-85
2023/12/25 09:46:31;;;;;;;0.00;0.00;;;13.10;82.30;;;;;;4902819;29;20481;-79
2023/12/25 09:48:57;;;;;;;0.00;0.00;;;13.10;82.20;;;;;;4897775;29;20043;-82
2023/12/25 09:51:32;;;;;;;0.10;0.10;;;13.00;82.30;;;;;;4898733;29;20029;-78
2023/12/25 09:53:58;;;;;;;0.10;0.10;;;13.10;82.60;;;;;;4896060;29;20045;-79
2023/12/25 09:56:26;;;;;;;0.10;0.10;;;13.10;82.50;;;;;;4894291;29;20088;-79
2023/12/25 09:58:54;;;;;;;0.13;0.13;;;13.10;82.50;;;;;;4901798;29;20084;-79
2023/12/25 10:01:21;;;;;;;0.05;0.05;;;13.10;82.30;;;;;;4885072;29;20041;-79
2023/12/25 10:03:47;;;;;;;0.10;0.10;;;13.20;82.40;;;;;;4885313;29;20036;-82
2023/12/25 10:06:13;;;;;;;0.10;0.10;;;13.20;82.40;;;;;;4902203;29;20092;-81
2023/12/25 10:08:39;;;;;;;0.10;0.10;;;13.30;82.30;;;;;;4900134;29;20029;-82
2023/12/25 10:11:08;;;;;;;0.10;0.10;;;13.30;82.20;;;;;;4902121;29;20523;-85
2023/12/25 10:13:34;;;;;;;0.10;0.10;;;13.30;81.90;;;;;;4901438;29;20111;-80
2023/12/25 10:16:02;;;;;;;0.10;0.10;;;13.20;82.00;;;;;;4901459;29;20059;-78
2023/12/25 10:18:28;;;;;;;0.10;0.10;;;13.20;82.20;;;;;;4899118;29;20029;-78
2023/12/25 10:20:58;;;;;;;0.05;0.05;;;13.20;82.40;;;;;;4902164;29;20516;-78
2023/12/25 10:23:31;;;;;;;0.00;0.00;;;13.20;82.30;;;;;;4902362;29;20543;-78
2023/12/25 10:26:01;;;;;;;0.10;0.10;;;13.30;82.10;;;;;;4900488;29;20092;-78
2023/12/25 10:28:28;;;;;;;0.10;0.10;;;13.20;82.20;;;;;;4898305;29;20032;-78
2023/12/25 10:31:04;;;;;;;0.10;0.10;;;13.30;82.10;;;;;;4881845;29;20095;-78
2023/12/25 10:33:31;;;;;;;0.05;0.05;;;13.20;82.10;;;;;;4895046;29;20041;-78
2023/12/25 10:36:10;;;;;;;0.00;0.00;;;13.20;82.00;;;;;;4903175;29;20500;-78
2023/12/25 10:38:40;;;;;;;0.10;0.10;;;13.30;82.10;;;;;;4901642;29;20033;-78
2023/12/25 10:41:27;;;;;;;0.00;0.00;;;13.30;82.00;;;;;;4892429;29;20415;-78
2023/12/25 10:43:57;;;;;;;0.10;0.10;;;13.20;82.00;;;;;;4901703;29;20036;-78
2023/12/25 10:46:37;;;;;;;0.00;0.00;;;13.30;81.90;;;;;;4880073;29;20035;-78
2023/12/25 10:49:04;;;;;;;0.03;0.03;;;13.30;81.70;;;;;;4900251;29;20032;-78
2023/12/25 10:51:33;;;;;;;0.10;0.10;;;13.30;81.80;;;;;;4884032;29;20061;-78
2023/12/25 10:54:01;;;;;;;0.03;0.03;;;13.40;81.70;;;;;;4901599;29;20032;-80
2023/12/25 10:56:30;;;;;;;0.10;0.10;;;13.40;81.60;;;;;;4878555;29;20044;-79
2023/12/25 10:59:03;;;;;;;0.00;0.00;;;13.50;81.60;;;;;;4896785;29;20035;-80
2023/12/25 11:01:31;;;;;;;0.10;0.10;;;13.50;81.70;;;;;;4901312;29;20020;-79
2023/12/25 11:03:57;;;;;;;0.10;0.10;;;13.40;81.50;;;;;;4895799;29;20033;-80
2023/12/25 11:06:24;;;;;;;0.10;0.10;;;13.50;81.70;;;;;;4901221;29;20029;-78
2023/12/25 11:08:49;;;;;;;0.10;0.10;;;13.50;81.60;;;;;;4883661;29;20043;-79
2023/12/25 11:11:16;;;;;;;0.00;0.00;;;13.60;81.40;;;;;;4884085;29;20032;-79
2023/12/25 11:13:42;;;;;;;0.10;0.10;;;13.60;81.40;;;;;;4883813;29;20041;-78
2023/12/25 11:16:09;;;;;;;0.08;0.08;;;13.60;81.50;;;;;;4900069;29;20035;-77
2023/12/25 11:18:37;;;;;;;0.10;0.10;;;13.60;81.40;;;;;;4897650;29;20037;-80
2023/12/25 11:21:08;;;;;;;0.05;0.05;;;13.70;81.50;;;;;;4901022;29;20021;-80
2023/12/25 11:23:40;;;;;;;0.10;0.10;;;13.70;81.50;;;;;;4895905;29;20120;-83
2023/12/25 11:26:09;;;;;;;0.10;0.10;;;13.60;81.40;;;;;;4900769;29;20036;-82
2023/12/25 11:28:41;;;;;;;0.10;0.10;;;13.70;81.50;;;;;;4883571;29;20070;-81
2023/12/25 11:31:07;;;;;;;0.10;0.10;;;13.70;81.70;;;;;;4883957;29;20036;-88
2023/12/25 11:33:46;;;;;;;0.10;0.10;;;13.70;81.60;;;;;;4896686;29;20040;-86
2023/12/25 11:36:14;;;;;;;0.10;0.10;;;13.70;81.70;;;;;;4897833;29;20031;-85
2023/12/25 11:38:56;;;;;;;0.10;0.10;;;13.70;81.70;;;;;;4883011;29;20040;-87
2023/12/25 11:41:23;;;;;;;0.10;0.10;;;13.70;81.60;;;;;;4898155;29;20056;-86
2023/12/25 11:43:49;;;;;;;0.10;0.10;;;13.70;81.40;;;;;;4892951;29;20044;-81
2023/12/25 11:46:22;;;;;;;0.10;0.10;;;13.90;81.30;;;;;;4898623;29;20092;-83
2023/12/25 11:48:57;;;;;;;0.10;0.10;;;13.90;81.30;;;;;;4895900;29;20045;-81
2023/12/25 11:51:25;;;;;;;0.10;0.10;;;14.00;80.90;;;;;;4899241;29;20083;-83
2023/12/25 11:53:52;;;;;;;0.00;0.00;;;14.10;80.90;;;;;;4887932;29;20032;-86
2023/12/25 11:56:18;;;;;;;0.10;0.10;;;14.10;80.70;;;;;;4881890;29;20032;-89
2023/12/25 11:58:45;;;;;;;0.10;0.10;;;14.00;80.60;;;;;;4879623;29;20029;-84
2023/12/25 12:01:17;;;;;;;0.05;0.05;;;14.00;80.60;;;;;;4884423;29;20073;-85
2023/12/25 12:03:48;;;;;;;0.10;0.10;;;14.10;80.70;;;;;;4893302;29;20124;-85
2023/12/25 12:06:15;;;;;;;0.03;0.03;;;14.20;80.50;;;;;;4899256;29;20115;-84
2023/12/25 12:08:41;;;;;;;0.08;0.08;;;14.30;80.40;;;;;;4882987;29;20469;-85
2023/12/25 12:11:13;;;;;;;0.05;0.05;;;14.30;79.90;;;;;;4900774;29;20028;-77
2023/12/25 12:13:39;;;;;;;0.00;0.00;;;14.30;79.30;;;;;;4882375;29;20053;-89
2023/12/25 12:16:06;;;;;;;0.10;0.10;;;14.30;78.80;;;;;;4883314;29;20027;-82
2023/12/25 12:18:32;;;;;;;0.10;0.10;;;14.20;78.40;;;;;;4901446;29;20052;-83
2023/12/25 12:20:58;;;;;;;0.10;0.10;;;14.30;78.40;;;;;;4899999;29;20554;-85
2023/12/25 12:23:24;;;;;;;0.08;0.08;;;14.30;78.40;;;;;;4882237;29;20029;-83
2023/12/25 12:25:50;;;;;;;0.10;0.10;;;14.30;78.30;;;;;;4899297;29;20141;-85
2023/12/25 12:28:23;;;;;;;0.03;0.03;;;14.30;78.50;;;;;;4899853;29;20081;-87
2023/12/25 12:30:49;;;;;;;0.10;0.10;;;14.30;78.30;;;;;;4882635;29;20029;-82
2023/12/25 12:33:16;;;;;;;0.10;0.10;;;14.30;78.20;;;;;;4899061;29;20036;-81
2023/12/25 12:35:41;;;;;;;0.10;0.10;;;14.30;78.40;;;;;;4897231;29;20052;-78
2023/12/25 12:38:10;;;;;;;0.10;0.10;;;14.30;78.70;;;;;;4899150;29;20073;-79
2023/12/25 12:40:35;;;;;;;0.10;0.10;;;14.40;78.60;;;;;;4895300;29;20024;-83
2023/12/25 12:43:01;;;;;;;0.10;0.10;;;14.40;78.50;;;;;;4897986;29;20058;-86
2023/12/25 12:45:27;;;;;;;0.10;0.10;;;14.40;78.20;;;;;;4898002;29;20560;-81
2023/12/25 12:47:53;;;;;;;0.10;0.10;;;14.40;78.40;;;;;;4898047;29;20463;-79
2023/12/25 12:50:22;;;;;;;0.00;0.00;;;14.30;78.20;;;;;;4899272;29;20032;-85
2023/12/25 12:52:48;;;;;;;0.00;0.00;;;14.30;78.20;;;;;;4877582;29;20037;-82
2023/12/25 12:55:14;;;;;;;0.10;0.10;;;14.30;78.30;;;;;;4882332;29;20446;-81
2023/12/25 12:57:40;;;;;;;0.08;0.08;;;14.30;78.50;;;;;;4897401;29;20029;-81
2023/12/25 13:00:06;;;;;;;0.10;0.10;;;14.30;78.40;;;;;;4882589;29;20398;-80
2023/12/25 13:02:32;;;;;;;0.10;0.10;;;14.30;78.30;;;;;;4895457;29;20040;-88
2023/12/25 13:04:58;;;;;;;0.10;0.10;;;14.30;78.00;;;;;;4893978;29;20047;-83
2023/12/25 13:07:23;;;;;;;0.10;0.10;;;14.30;78.00;;;;;;4881949;29;20028;-82
2023/12/25 13:09:49;;;;;;;0.00;0.00;;;14.20;78.50;;;;;;4893949;29;20029;-87
2023/12/25 13:12:15;;;;;;;0.00;0.00;;;14.10;78.90;;;;;;4894086;29;20052;-79
2023/12/25 13:14:41;;;;;;;0.10;0.10;;;14.10;79.20;;;;;;4882861;29;20045;-82
2023/12/25 13:17:08;;;;;;;0.10;0.10;;;14.00;79.60;;;;;;4896387;29;20023;-87
2023/12/25 13:19:34;;;;;;;0.10;0.10;;;14.00;79.70;;;;;;4901195;29;20055;-82
2023/12/25 13:22:00;;;;;;;0.00;0.00;;;14.00;79.80;;;;;;4886712;29;20089;-82
2023/12/25 13:24:25;;;;;;;0.10;0.10;;;14.10;79.80;;;;;;4901089;29;20048;-75
2023/12/25 13:26:51;;;;;;;0.10;0.10;;;14.10;79.50;;;;;;4885668;29;20111;-75
2023/12/25 13:29:17;;;;;;;0.10;0.10;;;14.10;79.80;;;;;;4884338;29;20036;-75
2023/12/25 13:31:42;;;;;;;0.10;0.10;;;14.10;79.90;;;;;;4885588;29;20025;-75
2023/12/25 13:34:08;;;;;;;0.10;0.10;;;14.00;79.30;;;;;;4886014;29;20041;-74
2023/12/25 13:36:33;;;;;;;0.10;0.10;;;14.00;79.30;;;;;;4885062;29;20032;-74
2023/12/25 13:38:59;;;;;;;0.08;0.08;;;14.00;79.20;;;;;;4885897;29;20121;-75
2023/12/25 13:41:25;;;;;;;0.03;0.03;;;14.00;79.30;;;;;;4901982;29;20025;-75
2023/12/25 13:43:52;;;;;;;0.10;0.10;;;14.00;79.20;;;;;;4884563;29;20048;-76
2023/12/25 13:46:18;;;;;;;0.05;0.05;;;14.00;79.20;;;;;;4884892;29;20123;-79
2023/12/25 13:48:44;;;;;;;0.10;0.10;;;14.00;79.10;;;;;;4885097;29;20072;-76
2023/12/25 13:51:09;;;;;;;0.10;0.10;;;14.00;79.10;;;;;;4897821;29;20034;-80
2023/12/25 13:53:36;;;;;;;0.00;0.00;;;13.90;79.00;;;;;;4895568;29;20485;-77
2023/12/25 13:56:02;;;;;;;0.10;0.10;;;13.90;78.90;;;;;;4884514;29;20029;-78
2023/12/25 13:58:27;;;;;;;0.08;0.08;;;13.80;79.10;;;;;;4885495;29;20473;-80
2023/12/25 14:00:53;;;;;;;0.10;0.10;;;13.90;79.40;;;;;;4904668;29;20095;-81
2023/12/25 14:03:19;;;;;;;0.10;0.10;;;13.80;79.50;;;;;;4902332;29;20461;-85
2023/12/25 14:05:44;;;;;;;0.10;0.10;;;13.80;79.20;;;;;;4883922;29;20040;-79
2023/12/25 14:08:10;;;;;;;0.03;0.03;;;13.70;79.00;;;;;;4902159;29;20036;-78
2023/12/25 14:10:36;;;;;;;0.10;0.10;;;13.70;78.90;;;;;;4900421;29;20028;-81
2023/12/25 14:13:01;;;;;;;0.10;0.10;;;13.70;79.00;;;;;;4898871;29;20024;-77
2023/12/25 14:15:30;;;;;;;0.10;0.10;;;13.80;79.20;;;;;;4890364;29;20056;-76
2023/12/25 14:17:55;;;;;;;0.10;0.10;;;13.80;79.20;;;;;;4901747;29;20036;-75
2023/12/25 14:20:22;;;;;;;0.10;0.10;;;13.80;78.70;;;;;;4900744;29;20044;-84
2023/12/25 14:22:48;;;;;;;0.10;0.10;;;13.90;78.10;;;;;;4883404;29;20048;-76
2023/12/25 14:25:14;;;;;;;0.10;0.10;;;13.90;77.80;;;;;;4900722;29;20047;-81
2023/12/25 14:27:40;;;;;;;0.00;0.00;;;13.90;77.20;;;;;;4899714;29;20056;-79
2023/12/25 14:30:06;;;;;;;0.10;0.10;;;13.80;76.80;;;;;;4901337;29;20036;-77
2023/12/25 14:32:32;;;;;;;0.10;0.10;;;13.80;77.10;;;;;;4899749;29;20040;-78
2023/12/25 14:34:57;;;;;;;0.10;0.10;;;13.80;76.90;;;;;;4894992;29;20040;-75
2023/12/25 14:37:23;;;;;;;0.10;0.10;;;13.80;77.10;;;;;;4893897;29;20513;-73
2023/12/25 14:39:48;;;;;;;0.00;0.00;;;13.80;76.20;;;;;;4880108;29;20112;-76
2023/12/25 14:42:14;;;;;;;0.10;0.10;;;13.80;75.90;;;;;;4892805;29;20047;-76
2023/12/25 14:44:40;;;;;;;0.10;0.10;;;13.80;75.60;;;;;;4867061;29;20048;-76
2023/12/25 14:47:06;;;;;;;0.10;0.10;;;13.70;76.10;;;;;;4901049;29;20037;-77
2023/12/25 14:49:32;;;;;;;0.10;0.10;;;13.80;75.80;;;;;;4899848;29;20020;-77
2023/12/25 14:51:58;;;;;;;0.10;0.10;;;13.80;76.00;;;;;;4900750;29;20726;-77
2023/12/25 14:54:25;;;;;;;0.10;0.10;;;13.80;75.90;;;;;;4897865;29;20072;-77
2023/12/25 14:56:51;;;;;;;0.05;0.05;;;13.80;76.20;;;;;;4880474;29;20029;-77
2023/12/25 14:59:17;;;;;;;0.10;0.10;;;13.90;76.10;;;;;;4900859;29;20392;-77
2023/12/25 15:01:46;;;;;;;0.10;0.10;;;13.90;75.90;;;;;;4884835;29;20476;-77
2023/12/25 15:04:12;;;;;;;0.10;0.10;;;13.80;76.00;;;;;;4891920;29;20077;-77
2023/12/25 15:06:38;;;;;;;0.10;0.10;;;13.90;76.00;;;;;;4892124;29;20532;-77
2023/12/25 15:09:03;;;;;;;0.10;0.10;;;13.80;76.00;;;;;;4887150;29;20080;-77
2023/12/25 15:11:29;;;;;;;0.10;0.10;;;13.80;75.90;;;;;;4897531;29;20032;-77
2023/12/25 15:13:56;;;;;;;0.10;0.10;;;13.80;76.30;;;;;;4891432;29;20045;-82
2023/12/25 15:16:21;;;;;;;0.10;0.10;;;13.80;76.00;;;;;;4900346;29;20024;-85
2023/12/25 15:18:47;;;;;;;0.00;0.00;;;13.70;75.20;;;;;;4894844;29;20048;-85
2023/12/25 15:21:12;;;;;;;0.10;0.10;;;13.60;75.00;;;;;;4900369;29;20454;-84
2023/12/25 15:23:38;;;;;;;0.10;0.10;;;13.60;75.10;;;;;;4901050;29;20028;-89
2023/12/25 15:26:04;;;;;;;0.10;0.10;;;13.60;74.70;;;;;;4893168;29;20064;-82
2023/12/25 15:28:29;;;;;;;0.00;0.00;;;13.60;74.10;;;;;;4900843;29;20043;-82
2023/12/25 15:30:55;;;;;;;0.10;0.10;;;13.60;74.60;;;;;;4900669;29;20029;-82
2023/12/25 15:33:21;;;;;;;0.03;0.03;;;13.60;74.90;;;;;;4882951;29;20458;-82
2023/12/25 15:35:46;;;;;;;0.10;0.10;;;13.60;75.10;;;;;;4885037;29;20073;-80
2023/12/25 15:38:12;;;;;;;0.10;0.10;;;13.60;75.30;;;;;;4877976;29;20044;-80
2023/12/25 15:40:37;;;;;;;0.10;0.10;;;13.60;75.30;;;;;;4894937;29;20073;-79
2023/12/25 15:43:03;;;;;;;0.10;0.10;;;13.60;75.10;;;;;;4887290;29;20047;-80
2023/12/25 15:45:32;;;;;;;0.10;0.10;;;13.60;75.30;;;;;;4898475;29;20790;-80
2023/12/25 15:47:58;;;;;;;0.08;0.08;;;13.50;75.20;;;;;;4893767;29;20088;-79
2023/12/25 15:50:24;;;;;;;0.10;0.10;;;13.50;75.20;;;;;;4874615;29;20036;-79
2023/12/25 15:52:50;;;;;;;0.10;0.10;;;13.50;75.20;;;;;;4866422;29;20033;-80
2023/12/25 15:55:16;;;;;;;0.10;0.10;;;13.50;75.20;;;;;;4886966;29;20027;-79
2023/12/25 15:57:44;;;;;;;0.10;0.10;;;13.50;75.00;;;;;;4891708;29;20032;-79
2023/12/25 16:00:11;;;;;;;0.10;0.10;;;13.40;75.10;;;;;;4890409;29;20025;-79
2023/12/25 16:02:38;;;;;;;0.10;0.10;;;13.50;74.80;;;;;;4898890;29;20035;-78
2023/12/25 16:05:05;;;;;;;0.10;0.10;;;13.40;75.00;;;;;;4896134;29;20457;-78
2023/12/25 16:07:31;;;;;;;0.10;0.10;;;13.50;75.40;;;;;;4888590;29;20037;-80
2023/12/25 16:09:56;;;;;;;0.10;0.10;;;13.50;75.10;;;;;;4873265;29;20032;-79
2023/12/25 16:12:23;;;;;;;0.10;0.10;;;13.50;75.30;;;;;;4890519;29;20037;-79
2023/12/25 16:14:49;;;;;;;0.05;0.05;;;13.50;75.20;;;;;;4886802;29;20049;-80
2023/12/25 16:17:15;;;;;;;0.10;0.10;;;13.40;75.50;;;;;;4896950;29;20033;-80
2023/12/25 16:19:41;;;;;;;0.10;0.10;;;13.40;75.60;;;;;;4898493;29;20017;-80
2023/12/25 16:22:07;;;;;;;0.00;0.00;;;13.40;75.80;;;;;;4897204;29;20107;-86
2023/12/25 16:24:32;;;;;;;0.10;0.10;;;13.40;76.00;;;;;;4881730;29;20024;-81
2023/12/25 16:26:58;;;;;;;0.08;0.08;;;13.40;76.10;;;;;;4891415;29;20056;-79
2023/12/25 16:29:23;;;;;;;0.00;0.00;;;13.40;76.00;;;;;;4873111;29;20043;-80
2023/12/25 16:31:49;;;;;;;0.10;0.10;;;13.30;76.20;;;;;;4883333;29;20446;-82
2023/12/25 16:34:15;;;;;;;0.10;0.10;;;13.30;76.20;;;;;;4883391;29;20033;-80
2023/12/25 16:36:41;;;;;;;0.10;0.10;;;13.30;76.20;;;;;;4881299;29;20021;-80
2023/12/25 16:39:06;;;;;;;0.10;0.10;;;13.30;76.20;;;;;;4874045;29;20040;-79
2023/12/25 16:41:32;;;;;;;0.10;0.10;;;13.30;76.20;;;;;;4892311;29;20108;-80
2023/12/25 16:43:58;;;;;;;0.10;0.10;;;13.30;76.00;;;;;;4888851;29;20056;-80
2023/12/25 16:46:23;;;;;;;0.10;0.10;;;13.30;76.10;;;;;;4889823;29;20035;-80
2023/12/25 16:48:49;;;;;;;0.10;0.10;;;13.30;76.10;;;;;;4894870;29;20025;-80
2023/12/25 16:51:16;;;;;;;0.00;0.00;;;13.30;76.00;;;;;;4890246;29;20524;-80
2023/12/25 16:53:42;;;;;;;0.05;0.05;;;13.30;75.60;;;;;;4898767;29;20043;-80
2023/12/25 16:56:08;;;;;;;0.10;0.10;;;13.30;75.30;;;;;;4888631;29;20124;-81
2023/12/25 16:58:34;;;;;;;0.10;0.10;;;13.30;75.70;;;;;;4884589;29;20035;-81
2023/12/25 17:01:00;;;;;;;0.10;0.10;;;13.30;75.40;;;;;;4892672;29;20040;-79
2023/12/25 17:03:25;;;;;;;0.10;0.10;;;13.20;75.50;;;;;;4895644;29;20032;-79
2023/12/25 17:05:51;;;;;;;0.10;0.10;;;13.20;74.60;;;;;;4891276;29;20064;-79
2023/12/25 17:08:17;;;;;;;0.10;0.10;;;13.20;75.00;;;;;;4898861;29;20041;-80
2023/12/25 17:10:43;;;;;;;0.10;0.10;;;13.20;74.50;;;;;;4887409;29;20255;-79
2023/12/25 17:13:08;;;;;;;0.10;0.10;;;13.10;74.60;;;;;;4887040;29;20096;-79
2023/12/25 17:15:34;;;;;;;0.10;0.10;;;13.00;74.20;;;;;;4900736;29;20408;-87
2023/12/25 17:18:00;;;;;;;0.10;0.10;;;13.10;74.50;;;;;;4901956;29;20029;-81
2023/12/25 17:20:26;;;;;;;0.10;0.10;;;13.10;74.40;;;;;;4891560;29;20033;-80
2023/12/25 17:22:52;;;;;;;0.10;0.10;;;13.10;74.50;;;;;;4882975;29;20032;-80
2023/12/25 17:25:19;;;;;;;0.10;0.10;;;13.00;74.70;;;;;;4899891;29;20187;-80
2023/12/25 17:27:45;;;;;;;0.10;0.10;;;13.10;74.80;;;;;;4898369;29;20040;-80
2023/12/25 17:30:11;;;;;;;0.00;0.00;;;13.00;74.80;;;;;;4890609;29;20745;-80
2023/12/25 17:32:36;;;;;;;0.00;0.00;;;13.00;74.90;;;;;;4875025;29;20056;-81
2023/12/25 17:35:05;;;;;;;0.10;0.10;;;13.00;74.90;;;;;;4882397;29;20100;-80
2023/12/25 17:37:32;;;;;;;0.00;0.00;;;13.00;75.20;;;;;;4880809;29;20029;-80
2023/12/25 17:39:57;;;;;;;0.10;0.10;;;13.00;75.10;;;;;;4880610;29;20035;-80
2023/12/25 17:42:27;;;;;;;0.10;0.10;;;13.00;75.50;;;;;;4898398;29;20040;-84
2023/12/25 17:44:56;;;;;;;0.10;0.10;;;13.00;75.60;;;;;;4897159;29;20028;-84
2023/12/25 17:47:22;;;;;;;0.10;0.10;;;13.00;75.50;;;;;;4895363;29;20037;-79
2023/12/25 17:49:47;;;;;;;0.10;0.10;;;13.00;75.80;;;;;;4896909;29;20493;-83
2023/12/25 17:52:13;;;;;;;0.10;0.10;;;13.00;75.90;;;;;;4880448;29;20112;-83
2023/12/25 17:54:39;;;;;;;0.10;0.10;;;13.00;75.90;;;;;;4896908;29;20067;-84
2023/12/25 17:57:05;;;;;;;0.10;0.10;;;13.00;76.00;;;;;;4884215;29;20056;-84
2023/12/25 17:59:31;;;;;;;0.10;0.10;;;13.00;76.20;;;;;;4892936;29;20032;-85
2023/12/25 18:01:56;;;;;;;0.10;0.10;;;12.90;76.30;;;;;;4882872;29;20047;-84
2023/12/25 18:04:23;;;;;;;0.10;0.10;;;13.00;76.50;;;;;;4885908;29;20029;-86
2023/12/25 18:06:48;;;;;;;0.10;0.10;;;12.90;76.40;;;;;;4891731;29;20524;-85
2023/12/25 18:09:14;;;;;;;0.00;0.00;;;12.90;76.30;;;;;;4881501;29;20059;-86
2023/12/25 18:11:41;;;;;;;0.10;0.10;;;12.90;76.50;;;;;;4883981;29;20036;-85
2023/12/25 18:14:07;;;;;;;0.10;0.10;;;12.90;76.50;;;;;;4878257;29;20045;-87